createdAt,value
2023-04-09T00:01:04.535Z,24.67
2023-04-09T00:02:11.177Z,27.10
2023-04-09T00:03:14.416Z,24.30
2023-04-09T00:04:16.917Z,22.40
2023-04-09T00:05:19.233Z,23.93
2023-04-09T00:06:21.494Z,25.87
2023-04-09T00:07:23.766Z,23.10
2023-04-09T00:08:28.912Z,22.73
2023-04-09T00:09:32.626Z,22.90
2023-04-09T00:10:35.484Z,22.90
2023-04-09T00:11:37.840Z,23.90
2023-04-09T00:12:40.202Z,25.10
2023-04-09T00:13:42.852Z,24.73
2023-04-09T00:14:46.751Z,22.87
2023-04-09T00:15:48.980Z,23.97
2023-04-09T00:16:51.265Z,23.63
2023-04-09T00:17:53.613Z,24.10
2023-04-09T00:18:56.653Z,22.70
2023-04-09T00:19:58.946Z,23.57
2023-04-09T00:21:01.331Z,24.00
2023-04-09T00:22:03.592Z,22.83
2023-04-09T00:23:06.289Z,25.03
2023-04-09T00:24:09.148Z,23.17
2023-04-09T00:25:11.516Z,25.63
2023-04-09T00:26:13.941Z,24.90
2023-04-09T00:27:16.943Z,22.83
2023-04-09T00:28:19.188Z,25.23
2023-04-09T00:29:21.489Z,22.67
2023-04-09T00:30:23.824Z,25.73
2023-04-09T00:31:26.504Z,23.60
2023-04-09T00:32:28.865Z,23.87
2023-04-09T00:33:31.634Z,24.80
2023-04-09T00:34:34.382Z,24.63
2023-04-09T00:35:37.184Z,24.83
2023-04-09T00:36:39.480Z,24.23
2023-04-09T00:37:41.945Z,24.07
2023-04-09T00:38:44.208Z,28.10
2023-04-09T00:39:47.779Z,26.10
2023-04-09T00:40:51.004Z,24.43
2023-04-09T00:41:58.352Z,23.03
2023-04-09T00:43:01.666Z,23.30
2023-04-09T00:44:04.029Z,23.93
2023-04-09T00:45:06.986Z,24.27
2023-04-09T00:46:09.417Z,26.23
2023-04-09T00:47:11.727Z,22.63
2023-04-09T00:48:15.871Z,22.33
2023-04-09T00:49:18.290Z,22.83
2023-04-09T00:50:21.719Z,21.60
2023-04-09T00:51:24.411Z,22.93
2023-04-09T00:52:27.317Z,22.07
2023-04-09T00:53:29.660Z,23.03
2023-04-09T00:54:32.726Z,22.70
2023-04-09T00:55:36.229Z,21.53
2023-04-09T00:56:41.497Z,23.20
2023-04-09T00:57:44.252Z,24.40
2023-04-09T00:58:47.155Z,23.77
2023-04-09T00:59:50.871Z,22.27
2023-04-09T01:00:53.206Z,22.43
2023-04-09T01:01:56.136Z,23.50
2023-04-09T01:02:59.727Z,22.57
2023-04-09T01:04:02.850Z,22.43
2023-04-09T01:05:05.668Z,22.03
2023-04-09T01:06:19.488Z,23.30
2023-04-09T01:07:37.399Z,21.77
2023-04-09T01:08:58.605Z,22.63
2023-04-09T01:10:22.043Z,20.83
2023-04-09T01:11:49.130Z,23.23
2023-04-09T01:13:28.684Z,22.00
2023-04-09T01:14:43.448Z,23.03
2023-04-09T01:15:56.247Z,22.47
2023-04-09T01:17:06.920Z,22.87
2023-04-09T01:18:23.166Z,22.27
2023-04-09T01:19:45.743Z,23.63
2023-04-09T01:21:17.381Z,21.90
2023-04-09T01:22:39.971Z,22.70
2023-04-09T01:23:53.041Z,22.13
2023-04-09T01:25:43.980Z,21.10
2023-04-09T01:27:08.853Z,23.63
2023-04-09T01:28:28.125Z,23.27
2023-04-09T01:29:48.426Z,22.20
2023-04-09T01:30:54.133Z,22.70
2023-04-09T01:31:56.578Z,21.93
2023-04-09T01:33:00.560Z,21.87
2023-04-09T01:34:05.253Z,21.83
2023-04-09T01:35:09.651Z,23.60
2023-04-09T01:36:13.791Z,22.33
2023-04-09T01:37:17.449Z,24.90
2023-04-09T01:38:21.987Z,20.43
2023-04-09T01:39:24.447Z,21.17
2023-04-09T01:40:26.771Z,22.47
2023-04-09T01:41:32.680Z,21.90
2023-04-09T01:42:36.644Z,22.40
2023-04-09T01:43:39.645Z,21.93
2023-04-09T01:44:44.361Z,22.63
2023-04-09T01:45:48.902Z,20.17
2023-04-09T01:46:52.307Z,23.63
2023-04-09T01:47:56.370Z,21.40
2023-04-09T01:48:59.551Z,23.20
2023-04-09T01:50:03.526Z,22.47
2023-04-09T01:51:06.146Z,21.30
2023-04-09T01:52:09.949Z,22.30
2023-04-09T01:53:13.275Z,24.10
2023-04-09T01:54:19.075Z,21.77
2023-04-09T01:55:21.543Z,22.73
2023-04-09T01:56:23.862Z,23.83
2023-04-09T01:57:26.229Z,22.63
2023-04-09T01:58:29.024Z,20.90
2023-04-09T01:59:31.466Z,21.80
2023-04-09T02:00:40.013Z,21.13
2023-04-09T02:01:54.858Z,23.67
2023-04-09T02:03:06.368Z,21.87
2023-04-09T02:04:20.259Z,23.07
2023-04-09T02:05:28.460Z,22.53
2023-04-09T02:06:53.841Z,22.33
2023-04-09T02:07:59.606Z,22.23
2023-04-09T02:09:06.033Z,21.10
2023-04-09T02:10:11.214Z,21.93
2023-04-09T02:11:15.445Z,23.87
2023-04-09T02:12:20.169Z,22.47
2023-04-09T02:13:24.162Z,22.43
2023-04-09T02:14:28.568Z,22.07
2023-04-09T02:15:32.552Z,23.10
2023-04-09T02:16:36.457Z,22.33
2023-04-09T02:17:38.836Z,21.33
2023-04-09T02:18:41.472Z,21.87
2023-04-09T02:19:46.226Z,22.37
2023-04-09T02:20:49.184Z,23.10
2023-04-09T02:21:51.544Z,22.43
2023-04-09T02:22:53.806Z,21.87
2023-04-09T02:23:57.438Z,22.50
2023-04-09T02:25:00.051Z,21.77
2023-04-09T02:26:02.921Z,23.77
2023-04-09T02:27:06.344Z,23.17
2023-04-09T02:28:08.575Z,23.80
2023-04-09T02:29:10.826Z,22.90
2023-04-09T02:30:13.230Z,23.53
2023-04-09T02:31:16.148Z,23.50
2023-04-09T02:32:20.472Z,22.53
2023-04-09T02:33:24.428Z,24.07
2023-04-09T02:34:26.705Z,23.43
2023-04-09T02:35:29.191Z,24.13
2023-04-09T02:36:31.486Z,22.60
2023-04-09T02:37:34.840Z,24.80
2023-04-09T02:38:37.213Z,22.93
2023-04-09T02:39:39.530Z,21.47
2023-04-09T02:40:42.009Z,22.57
2023-04-09T02:41:44.705Z,22.93
2023-04-09T02:42:47.086Z,21.87
2023-04-09T02:43:49.414Z,22.10
2023-04-09T02:44:51.677Z,21.53
2023-04-09T02:45:54.040Z,21.37
2023-04-09T02:46:57.023Z,24.60
2023-04-09T02:47:59.476Z,21.90
2023-04-09T02:49:01.822Z,22.87
2023-04-09T02:50:05.082Z,22.00
2023-04-09T02:51:08.906Z,22.03
2023-04-09T02:52:11.595Z,23.03
2023-04-09T02:53:13.912Z,22.37
2023-04-09T02:54:16.393Z,22.77
2023-04-09T02:55:19.615Z,20.23
2023-04-09T02:56:21.864Z,22.27
2023-04-09T02:57:24.235Z,21.07
2023-04-09T02:58:26.581Z,23.33
2023-04-09T02:59:28.838Z,23.50
2023-04-09T03:00:31.197Z,22.47
2023-04-09T03:01:33.545Z,26.47
2023-04-09T03:02:37.209Z,25.47
2023-04-09T03:03:42.621Z,26.03
2023-04-09T03:04:45.068Z,24.63
2023-04-09T03:05:47.373Z,25.83
2023-04-09T03:06:51.813Z,26.10
2023-04-09T03:07:55.207Z,24.30
2023-04-09T03:08:57.476Z,25.80
2023-04-09T03:09:59.762Z,24.63
2023-04-09T03:11:02.032Z,24.60
2023-04-09T03:12:04.549Z,24.17
2023-04-09T03:13:06.840Z,24.13
2023-04-09T03:14:09.556Z,22.83
2023-04-09T03:15:11.966Z,23.73
2023-04-09T03:16:14.227Z,21.53
2023-04-09T03:17:16.616Z,23.17
2023-04-09T03:18:19.367Z,24.33
2023-04-09T03:19:22.816Z,22.87
2023-04-09T03:20:25.214Z,23.13
2023-04-09T03:21:27.707Z,23.60
2023-04-09T03:22:29.969Z,23.67
2023-04-09T03:23:35.232Z,22.93
2023-04-09T03:24:39.156Z,24.97
2023-04-09T03:25:42.093Z,21.93
2023-04-09T03:26:49.948Z,23.10
2023-04-09T03:27:52.524Z,23.47
2023-04-09T03:29:06.025Z,23.37
2023-04-09T03:30:10.311Z,21.37
2023-04-09T03:31:18.613Z,21.80
2023-04-09T03:32:23.338Z,24.77
2023-04-09T03:33:26.236Z,22.97
2023-04-09T03:34:31.129Z,24.80
2023-04-09T03:35:35.179Z,22.23
2023-04-09T03:36:39.027Z,23.10
2023-04-09T03:37:54.017Z,22.07
2023-04-09T03:38:56.959Z,22.27
2023-04-09T03:40:09.145Z,22.63
2023-04-09T03:41:12.671Z,23.50
2023-04-09T03:42:14.952Z,23.10
2023-04-09T03:43:22.250Z,22.47
2023-04-09T03:44:27.582Z,24.10
2023-04-09T03:45:34.552Z,24.20
2023-04-09T03:46:49.549Z,21.47
2023-04-09T03:47:55.160Z,23.90
2023-04-09T03:49:01.293Z,21.53
2023-04-09T03:50:23.420Z,23.47
2023-04-09T03:51:29.602Z,22.37
2023-04-09T03:52:35.467Z,22.87
2023-04-09T03:53:47.081Z,23.47
2023-04-09T03:54:54.232Z,22.63
2023-04-09T03:55:59.975Z,22.27
2023-04-09T03:57:03.974Z,21.50
2023-04-09T03:58:06.505Z,21.23
2023-04-09T03:59:11.138Z,21.67
2023-04-09T04:00:16.424Z,20.93
2023-04-09T04:01:46.701Z,22.57
2023-04-09T04:02:49.785Z,23.70
2023-04-09T04:03:54.875Z,23.47
2023-04-09T04:05:01.611Z,23.50
2023-04-09T04:06:09.735Z,21.00
2023-04-09T04:07:37.278Z,23.90
2023-04-09T04:08:48.825Z,22.03
2023-04-09T04:09:52.029Z,21.67
2023-04-09T04:10:55.532Z,25.00
2023-04-09T04:11:59.055Z,23.43
2023-04-09T04:13:15.967Z,22.07
2023-04-09T04:14:24.653Z,23.57
2023-04-09T04:15:34.428Z,23.23
2023-04-09T04:16:43.035Z,23.07
2023-04-09T04:17:46.852Z,21.90
2023-04-09T04:18:59.078Z,24.90
2023-04-09T04:20:03.332Z,24.57
2023-04-09T04:21:14.845Z,23.27
2023-04-09T04:22:20.593Z,21.83
2023-04-09T04:23:26.676Z,23.10
2023-04-09T04:24:36.167Z,23.57
2023-04-09T04:25:42.184Z,24.37
2023-04-09T04:26:47.690Z,23.60
2023-04-09T04:27:53.097Z,21.40
2023-04-09T04:28:58.599Z,23.73
2023-04-09T04:30:18.964Z,19.70
2023-04-09T04:31:36.370Z,20.00
2023-04-09T04:32:38.801Z,20.27
2023-04-09T04:33:44.768Z,23.03
2023-04-09T04:34:50.789Z,22.13
2023-04-09T04:36:07.392Z,20.07
2023-04-09T04:37:17.012Z,20.70
2023-04-09T04:38:19.519Z,24.80
2023-04-09T04:39:22.994Z,23.93
2023-04-09T04:40:37.290Z,24.47
2023-04-09T04:41:39.547Z,23.20
2023-04-09T04:42:47.164Z,23.10
2023-04-09T04:43:51.473Z,22.83
2023-04-09T04:44:57.534Z,23.47
2023-04-09T04:46:13.949Z,23.10
2023-04-09T04:47:16.501Z,23.10
2023-04-09T04:48:20.600Z,22.93
2023-04-09T04:49:22.881Z,21.63
2023-04-09T04:50:26.378Z,23.93
2023-04-09T04:51:36.177Z,20.10
2023-04-09T04:52:45.111Z,24.33
2023-04-09T04:53:47.754Z,21.40
2023-04-09T04:54:51.713Z,21.50
2023-04-09T04:55:57.829Z,22.43
2023-04-09T04:57:02.805Z,23.53
2023-04-09T04:58:11.992Z,21.57
2023-04-09T04:59:21.493Z,23.00
2023-04-09T05:00:35.851Z,21.07
2023-04-09T05:01:40.215Z,22.60
2023-04-09T05:02:46.901Z,22.07
2023-04-09T05:04:14.515Z,24.57
2023-04-09T05:05:16.865Z,22.93
2023-04-09T05:06:25.084Z,25.47
2023-04-09T05:07:28.642Z,23.93
2023-04-09T05:08:32.372Z,23.23
2023-04-09T05:09:34.701Z,24.00
2023-04-09T05:10:43.483Z,21.97
2023-04-09T05:11:47.129Z,24.23
2023-04-09T05:12:54.323Z,21.37
2023-04-09T05:14:06.552Z,24.10
2023-04-09T05:15:09.109Z,21.00
2023-04-09T05:16:22.416Z,22.80
2023-04-09T05:17:31.479Z,22.87
2023-04-09T05:18:33.776Z,21.63
2023-04-09T05:19:36.176Z,24.23
2023-04-09T05:20:38.800Z,22.60
2023-04-09T05:21:46.803Z,21.97
2023-04-09T05:22:52.448Z,24.03
2023-04-09T05:24:01.281Z,24.10
2023-04-09T05:25:08.446Z,23.70
2023-04-09T05:26:15.814Z,20.70
2023-04-09T05:27:26.259Z,24.23
2023-04-09T05:28:33.222Z,23.27
2023-04-09T05:29:48.989Z,21.10
2023-04-09T05:30:51.696Z,24.67
2023-04-09T05:31:54.534Z,21.53
2023-04-09T05:33:05.265Z,25.30
2023-04-09T05:34:08.382Z,21.93
2023-04-09T05:35:19.163Z,23.90
2023-04-09T05:36:21.540Z,23.80
2023-04-09T05:37:23.837Z,23.13
2023-04-09T05:38:29.335Z,23.90
2023-04-09T05:39:34.157Z,22.73
2023-04-09T05:40:37.026Z,22.63
2023-04-09T05:41:47.021Z,23.67
2023-04-09T05:43:03.214Z,22.43
2023-04-09T05:44:14.148Z,24.87
2023-04-09T05:45:16.659Z,22.73
2023-04-09T05:46:24.521Z,23.37
2023-04-09T05:47:29.543Z,23.30
2023-04-09T05:48:39.522Z,22.60
2023-04-09T05:49:42.256Z,23.17
2023-04-09T05:50:55.979Z,21.93
2023-04-09T05:52:01.902Z,21.90
2023-04-09T05:53:07.399Z,23.10
2023-04-09T05:54:14.546Z,24.73
2023-04-09T05:55:16.944Z,25.20
2023-04-09T05:56:23.685Z,25.40
2023-04-09T05:57:32.001Z,24.63
2023-04-09T05:58:37.557Z,22.87
2023-04-09T05:59:41.142Z,22.47
2023-04-09T06:00:43.866Z,22.57
2023-04-09T06:01:46.238Z,22.33
2023-04-09T06:02:51.197Z,23.60
2023-04-09T06:03:55.502Z,23.30
2023-04-09T06:05:00.399Z,24.33
2023-04-09T06:06:02.802Z,26.93
2023-04-09T06:07:05.959Z,24.00
2023-04-09T06:08:08.749Z,27.37
2023-04-09T06:09:10.979Z,28.80
2023-04-09T06:10:13.378Z,28.13
2023-04-09T06:11:15.974Z,28.93
2023-04-09T06:12:19.697Z,28.87
2023-04-09T06:13:22.423Z,30.37
2023-04-09T06:14:24.710Z,30.17
2023-04-09T06:15:27.674Z,27.53
2023-04-09T06:16:30.166Z,30.47
2023-04-09T06:17:32.508Z,28.80
2023-04-09T06:18:36.469Z,26.90
2023-04-09T06:19:38.768Z,29.03
2023-04-09T06:20:42.361Z,28.10
2023-04-09T06:21:47.709Z,30.60
2023-04-09T06:22:50.135Z,28.37
2023-04-09T06:23:53.926Z,28.17
2023-04-09T06:24:56.822Z,25.47
2023-04-09T06:25:59.583Z,26.97
2023-04-09T06:27:04.287Z,25.60
2023-04-09T06:28:06.900Z,25.03
2023-04-09T06:29:09.252Z,23.97
2023-04-09T06:30:11.934Z,25.37
2023-04-09T06:31:14.358Z,26.70
2023-04-09T06:32:17.274Z,25.43
2023-04-09T06:33:22.587Z,24.07
2023-04-09T06:34:24.941Z,25.77
2023-04-09T06:35:28.978Z,26.43
2023-04-09T06:36:33.017Z,24.77
2023-04-09T06:37:35.300Z,25.37
2023-04-09T06:38:37.608Z,24.50
2023-04-09T06:39:47.710Z,24.80
2023-04-09T06:41:02.625Z,24.63
2023-04-09T06:42:04.999Z,26.07
2023-04-09T06:43:14.254Z,26.27
2023-04-09T06:44:24.935Z,24.17
2023-04-09T06:45:27.752Z,27.03
2023-04-09T06:46:30.321Z,25.67
2023-04-09T06:47:32.731Z,24.53
2023-04-09T06:48:35.268Z,25.67
2023-04-09T06:49:38.064Z,26.43
2023-04-09T06:50:40.532Z,27.23
2023-04-09T06:51:42.869Z,25.63
2023-04-09T06:52:45.214Z,25.23
2023-04-09T06:53:48.531Z,27.97
2023-04-09T06:54:52.218Z,26.20
2023-04-09T06:55:56.707Z,29.13
2023-04-09T06:56:59.508Z,26.83
2023-04-09T06:58:02.993Z,25.47
2023-04-09T06:59:07.932Z,26.13
2023-04-09T07:00:11.048Z,24.57
2023-04-09T07:01:13.352Z,25.03
2023-04-09T07:02:15.978Z,24.40
2023-04-09T07:03:18.488Z,23.87
2023-04-09T07:04:21.447Z,26.07
2023-04-09T07:05:24.342Z,24.70
2023-04-09T07:06:26.689Z,25.33
2023-04-09T07:07:29.060Z,27.13
2023-04-09T07:08:31.417Z,24.50
2023-04-09T07:09:34.172Z,27.10
2023-04-09T07:10:36.819Z,24.47
2023-04-09T07:11:39.212Z,24.47
2023-04-09T07:12:41.617Z,27.50
2023-04-09T07:13:44.063Z,23.35
2023-04-09T07:14:46.398Z,26.27
2023-04-09T07:15:48.757Z,23.70
2023-04-09T07:16:51.103Z,23.08
2023-04-09T07:17:53.599Z,24.58
2023-04-09T07:18:56.054Z,26.13
2023-04-09T07:19:58.550Z,25.10
2023-04-09T07:21:01.043Z,25.50
2023-04-09T07:22:03.382Z,25.20
2023-04-09T07:23:06.018Z,23.70
2023-04-09T07:24:10.762Z,24.60
2023-04-09T07:25:13.122Z,24.33
2023-04-09T07:26:15.529Z,23.85
2023-04-09T07:27:18.021Z,22.60
2023-04-09T07:28:20.451Z,26.38
2023-04-09T07:29:22.858Z,25.08
2023-04-09T07:30:25.249Z,24.20
2023-04-09T07:31:27.673Z,24.42
2023-04-09T07:32:30.374Z,23.88
2023-04-09T07:33:32.896Z,25.02
2023-04-09T07:34:38.046Z,23.85
2023-04-09T07:35:40.583Z,23.45
2023-04-09T07:36:43.243Z,23.52
2023-04-09T07:37:45.795Z,23.50
2023-04-09T07:38:50.371Z,22.70
2023-04-09T07:39:53.688Z,24.63
2023-04-09T07:40:56.238Z,24.73
2023-04-09T07:41:58.580Z,24.52
2023-04-09T07:43:01.245Z,24.58
2023-04-09T07:44:04.160Z,25.30
2023-04-09T07:45:07.510Z,25.85
2023-04-09T07:46:09.869Z,24.38
2023-04-09T07:47:13.155Z,24.60
2023-04-09T07:48:15.656Z,25.02
2023-04-09T07:49:18.059Z,23.75
2023-04-09T07:50:20.575Z,23.45
2023-04-09T07:51:22.964Z,25.02
2023-04-09T07:52:25.307Z,28.23
2023-04-09T07:53:27.839Z,25.70
2023-04-09T07:54:31.697Z,24.73
2023-04-09T07:55:34.006Z,25.17
2023-04-09T07:56:36.541Z,23.60
2023-04-09T07:57:38.964Z,22.17
2023-04-09T07:58:41.273Z,24.10
2023-04-09T07:59:43.566Z,22.30
2023-04-09T08:00:45.893Z,22.88
2023-04-09T08:01:48.356Z,23.08
2023-04-09T08:02:51.141Z,22.98
2023-04-09T08:03:53.761Z,22.67
2023-04-09T08:04:56.188Z,22.40
2023-04-09T08:05:58.568Z,22.02
2023-04-09T08:07:00.921Z,21.88
2023-04-09T08:08:03.606Z,22.08
2023-04-09T08:09:08.568Z,20.58
2023-04-09T08:10:15.298Z,21.27
2023-04-09T08:11:22.347Z,22.13
2023-04-09T08:12:24.649Z,22.60
2023-04-09T08:13:26.971Z,22.85
2023-04-09T08:14:29.321Z,21.90
2023-04-09T08:15:31.666Z,21.98
2023-04-09T08:16:34.002Z,22.88
2023-04-09T08:17:37.488Z,23.00
2023-04-09T08:18:40.000Z,21.80
2023-04-09T08:19:42.329Z,22.45
2023-04-09T08:20:45.511Z,22.27
2023-04-09T08:21:50.655Z,24.00
2023-04-09T08:22:53.342Z,22.80
2023-04-09T08:23:59.753Z,21.60
2023-04-09T08:25:02.919Z,22.92
2023-04-09T08:26:05.400Z,22.08
2023-04-09T08:27:07.897Z,22.20
2023-04-09T08:28:10.155Z,21.30
2023-04-09T08:29:13.865Z,21.77
2023-04-09T08:30:18.274Z,22.23
2023-04-09T08:31:21.232Z,22.45
2023-04-09T08:32:23.616Z,22.50
2023-04-09T08:33:26.723Z,22.42
2023-04-09T08:34:29.003Z,22.52
2023-04-09T08:35:31.585Z,21.42
2023-04-09T08:36:35.672Z,22.67
2023-04-09T08:37:38.553Z,22.55
2023-04-09T08:38:42.213Z,22.23
2023-04-09T08:39:44.530Z,22.38
2023-04-09T08:40:46.936Z,23.20
2023-04-09T08:41:52.150Z,21.17
2023-04-09T08:42:58.811Z,21.55
2023-04-09T08:44:01.129Z,21.83
2023-04-09T08:45:06.371Z,22.25
2023-04-09T08:46:10.764Z,22.75
2023-04-09T08:47:13.686Z,22.33
2023-04-09T08:48:17.215Z,22.23
2023-04-09T08:49:19.753Z,22.40
2023-04-09T08:50:22.600Z,22.48
2023-04-09T08:51:25.236Z,22.67
2023-04-09T08:52:32.981Z,23.15
2023-04-09T08:53:36.375Z,21.92
2023-04-09T08:54:38.789Z,23.02
2023-04-09T08:55:45.086Z,22.63
2023-04-09T08:56:47.932Z,22.00
2023-04-09T08:57:50.474Z,22.08
2023-04-09T08:58:53.991Z,23.23
2023-04-09T08:59:56.621Z,22.30
2023-04-09T09:00:58.943Z,22.25
2023-04-09T09:02:12.074Z,22.73
2023-04-09T09:03:14.902Z,21.80
2023-04-09T09:04:17.454Z,22.20
2023-04-09T09:05:36.041Z,23.08
2023-04-09T09:06:41.269Z,21.95
2023-04-09T09:07:54.725Z,22.17
2023-04-09T09:09:13.959Z,22.00
2023-04-09T09:10:16.400Z,22.05
2023-04-09T09:11:28.076Z,21.65
2023-04-09T09:12:41.343Z,22.38
2023-04-09T09:13:43.648Z,21.33
2023-04-09T09:14:46.669Z,23.10
2023-04-09T09:15:52.975Z,22.42
2023-04-09T09:16:58.245Z,22.20
2023-04-09T09:18:01.020Z,22.67
2023-04-09T09:19:03.532Z,21.73
2023-04-09T09:20:27.282Z,22.52
2023-04-09T09:21:30.379Z,22.02
2023-04-09T09:22:49.572Z,22.38
2023-04-09T09:23:58.287Z,22.00
2023-04-09T09:25:00.643Z,21.92
2023-04-09T09:26:12.691Z,22.60
2023-04-09T09:27:37.048Z,23.45
2023-04-09T09:28:39.582Z,22.08
2023-04-09T09:29:42.918Z,23.23
2023-04-09T09:30:48.628Z,22.95
2023-04-09T09:31:53.979Z,21.90
2023-04-09T09:33:12.673Z,23.23
2023-04-09T09:34:17.157Z,23.00
2023-04-09T09:35:19.671Z,23.00
2023-04-09T09:36:35.254Z,23.27
2023-04-09T09:37:37.515Z,23.70
2023-04-09T09:38:57.514Z,24.08
2023-04-09T09:40:01.218Z,22.55
2023-04-09T09:41:18.091Z,23.60
2023-04-09T09:42:20.440Z,22.92
2023-04-09T09:43:22.915Z,23.23
2023-04-09T09:44:33.125Z,23.42
2023-04-09T09:45:37.478Z,28.48
2023-04-09T09:46:42.640Z,30.30
2023-04-09T09:47:45.925Z,28.20
2023-04-09T09:48:50.196Z,32.47
2023-04-09T09:49:52.797Z,25.30
2023-04-09T09:50:55.290Z,25.02
2023-04-09T09:52:00.152Z,24.30
2023-04-09T09:53:06.243Z,24.13
2023-04-09T09:54:13.106Z,25.25
2023-04-09T09:55:18.035Z,24.30
2023-04-09T09:56:24.989Z,26.42
2023-04-09T09:57:30.198Z,23.60
2023-04-09T09:58:44.225Z,38.38
2023-04-09T10:00:05.853Z,399.52
2023-04-09T10:01:18.469Z,284.42
2023-04-09T10:02:23.628Z,316.98
2023-04-09T10:03:29.437Z,205.48
2023-04-09T10:04:36.113Z,139.10
2023-04-09T10:05:40.782Z,78.05
2023-04-09T10:06:48.347Z,70.18
2023-04-09T10:07:51.987Z,98.18
2023-04-09T10:09:01.034Z,119.43
2023-04-09T10:10:05.384Z,131.35
2023-04-09T10:11:08.050Z,118.85
2023-04-09T10:12:12.210Z,67.72
2023-04-09T10:13:21.481Z,92.65
2023-04-09T10:14:24.663Z,51.47
2023-04-09T10:15:30.132Z,83.15
2023-04-09T10:16:33.192Z,77.60
2023-04-09T10:17:35.727Z,71.40
2023-04-09T10:18:38.167Z,45.50
2023-04-09T10:19:49.738Z,48.92
2023-04-09T10:20:59.816Z,45.53
2023-04-09T10:22:11.869Z,40.53
2023-04-09T10:23:24.466Z,36.05
2023-04-09T10:24:26.788Z,28.55
2023-04-09T10:25:29.171Z,41.42
2023-04-09T10:26:40.391Z,38.53
2023-04-09T10:27:46.283Z,31.98
2023-04-09T10:29:09.652Z,32.47
2023-04-09T10:30:32.584Z,43.17
2023-04-09T10:31:54.287Z,33.17
2023-04-09T10:32:56.720Z,31.20
2023-04-09T10:34:04.297Z,26.80
2023-04-09T10:35:09.510Z,29.58
2023-04-09T10:36:13.346Z,27.38
2023-04-09T10:37:20.781Z,25.48
2023-04-09T10:38:45.361Z,24.27
2023-04-09T10:39:49.029Z,24.23
2023-04-09T10:40:51.588Z,23.92
2023-04-09T10:41:55.150Z,24.23
2023-04-09T10:42:58.333Z,23.17
2023-04-09T10:44:00.755Z,24.58
2023-04-09T10:45:07.849Z,23.67
2023-04-09T10:46:30.220Z,23.98
2023-04-09T10:47:36.788Z,25.02
2023-04-09T10:48:39.058Z,23.98
2023-04-09T10:49:42.256Z,24.25
2023-04-09T10:50:44.869Z,23.25
2023-04-09T10:52:03.556Z,25.67
2023-04-09T10:53:06.495Z,25.52
2023-04-09T10:54:37.836Z,24.63
2023-04-09T10:55:41.814Z,23.35
2023-04-09T10:57:16.867Z,24.98
2023-04-09T10:58:19.748Z,24.85
2023-04-09T10:59:22.059Z,24.70
2023-04-09T11:00:24.340Z,24.45
2023-04-09T11:01:27.505Z,24.65
2023-04-09T11:02:39.046Z,23.80
2023-04-09T11:03:45.213Z,23.27
2023-04-09T11:05:00.473Z,23.27
2023-04-09T11:06:09.505Z,23.52
2023-04-09T11:07:12.788Z,24.25
2023-04-09T11:08:17.324Z,23.90
2023-04-09T11:09:19.620Z,23.38
2023-04-09T11:10:22.186Z,24.38
2023-04-09T11:11:28.467Z,23.48
2023-04-09T11:12:30.801Z,23.48
2023-04-09T11:13:33.253Z,24.65
2023-04-09T11:14:35.557Z,24.42
2023-04-09T11:15:37.904Z,23.98
2023-04-09T11:18:09.014Z,25.73
2023-04-09T11:19:11.508Z,28.77
2023-04-09T11:20:16.760Z,24.35
2023-04-09T11:21:19.087Z,25.30
2023-04-09T11:22:21.546Z,24.95
2023-04-09T11:23:24.951Z,25.20
2023-04-09T11:24:27.290Z,24.85
2023-04-09T11:25:31.837Z,24.17
2023-04-09T11:26:38.380Z,25.38
2023-04-09T11:27:46.817Z,24.23
2023-04-09T11:28:49.410Z,24.23
2023-04-09T11:29:56.461Z,22.92
2023-04-09T11:31:00.183Z,24.60
2023-04-09T11:32:02.902Z,23.60
2023-04-09T11:33:05.272Z,24.50
2023-04-09T11:34:11.541Z,22.60
2023-04-09T11:35:21.165Z,22.25
2023-04-09T11:36:23.924Z,22.58
2023-04-09T11:37:26.417Z,22.45
2023-04-09T11:38:31.857Z,22.77
2023-04-09T11:39:38.405Z,23.83
2023-04-09T11:40:48.507Z,24.60
2023-04-09T11:41:51.298Z,23.45
2023-04-09T11:42:55.484Z,23.80
2023-04-09T11:43:57.850Z,23.23
2023-04-09T11:45:02.664Z,24.50
2023-04-09T11:46:08.309Z,22.52
2023-04-09T11:47:11.582Z,22.13
2023-04-09T11:48:15.233Z,22.20
2023-04-09T11:49:17.865Z,23.10
2023-04-09T11:50:21.352Z,23.35
2023-04-09T11:51:24.462Z,23.65
2023-04-09T11:52:28.199Z,22.92
2023-04-09T11:53:31.432Z,21.95
2023-04-09T11:54:34.747Z,21.75
2023-04-09T11:55:38.472Z,22.20
2023-04-09T11:56:40.807Z,21.15
2023-04-09T11:57:46.846Z,22.30
2023-04-09T11:58:49.722Z,21.27
2023-04-09T11:59:53.506Z,20.98
2023-04-09T12:01:00.813Z,20.70
2023-04-09T12:02:08.563Z,19.95
2023-04-09T12:03:12.510Z,22.65
2023-04-09T12:04:24.258Z,20.70
2023-04-09T12:05:29.894Z,22.02
2023-04-09T12:06:33.393Z,22.00
2023-04-09T12:07:39.578Z,21.42
2023-04-09T12:08:45.336Z,21.50
2023-04-09T12:09:51.962Z,21.60
2023-04-09T12:10:54.848Z,22.50
2023-04-09T12:12:00.130Z,21.50
2023-04-09T12:13:14.136Z,21.70
2023-04-09T12:14:17.910Z,21.63
2023-04-09T12:15:27.461Z,21.50
2023-04-09T12:16:36.943Z,21.80
2023-04-09T12:17:39.766Z,21.88
2023-04-09T12:18:42.158Z,22.38
2023-04-09T12:19:52.146Z,21.40
2023-04-09T12:20:54.388Z,21.35
2023-04-09T12:21:58.975Z,21.67
2023-04-09T12:23:03.770Z,21.52
2023-04-09T12:24:09.158Z,20.20
2023-04-09T12:25:11.602Z,20.92
2023-04-09T12:26:16.681Z,21.75
2023-04-09T12:27:19.086Z,21.85
2023-04-09T12:28:22.004Z,21.65
2023-04-09T12:29:26.126Z,21.30
2023-04-09T12:30:28.465Z,21.65
2023-04-09T12:31:30.993Z,21.15
2023-04-09T12:32:36.350Z,21.58
2023-04-09T12:33:40.627Z,21.05
2023-04-09T12:34:44.389Z,21.98
2023-04-09T12:35:47.351Z,21.38
2023-04-09T12:36:50.892Z,20.38
2023-04-09T12:37:55.177Z,20.33
2023-04-09T12:38:59.090Z,19.15
2023-04-09T12:40:01.524Z,18.65
2023-04-09T12:41:04.651Z,18.55
2023-04-09T12:42:07.156Z,18.48
2023-04-09T12:43:09.472Z,18.40
2023-04-09T12:44:11.834Z,18.88
2023-04-09T12:45:17.177Z,19.38
2023-04-09T12:46:21.866Z,18.85
2023-04-09T12:47:24.283Z,18.75
2023-04-09T12:48:35.413Z,19.00
2023-04-09T12:49:42.137Z,19.52
2023-04-09T12:50:45.662Z,18.75
2023-04-09T12:51:49.114Z,17.95
2023-04-09T12:52:51.857Z,19.58
2023-04-09T12:53:55.344Z,20.15
2023-04-09T12:54:58.337Z,20.25
2023-04-09T12:56:02.008Z,20.40
2023-04-09T12:57:05.564Z,20.75
2023-04-09T12:58:08.960Z,19.73
2023-04-09T12:59:11.494Z,20.27
2023-04-09T13:00:20.836Z,20.10
2023-04-09T13:01:23.281Z,20.92
2023-04-09T13:02:25.988Z,18.85
2023-04-09T13:03:29.907Z,19.38
2023-04-09T13:04:32.763Z,19.45
2023-04-09T13:05:44.931Z,19.73
2023-04-09T13:06:49.075Z,18.98
2023-04-09T13:07:53.974Z,18.67
2023-04-09T13:08:56.438Z,19.38
2023-04-09T13:10:01.745Z,19.70
2023-04-09T13:11:05.465Z,18.70
2023-04-09T13:12:07.932Z,19.75
2023-04-09T13:13:14.206Z,19.88
2023-04-09T13:14:16.582Z,19.33
2023-04-09T13:15:19.997Z,19.80
2023-04-09T13:16:22.547Z,20.10
2023-04-09T13:17:28.310Z,20.05
2023-04-09T13:18:30.623Z,18.50
2023-04-09T13:19:35.099Z,20.25
2023-04-09T13:20:37.499Z,20.05
2023-04-09T13:21:41.046Z,20.70
2023-04-09T13:22:47.183Z,21.02
2023-04-09T13:23:49.492Z,22.15
2023-04-09T13:24:52.880Z,21.25
2023-04-09T13:25:56.796Z,19.75
2023-04-09T13:26:59.217Z,19.77
2023-04-09T13:28:02.413Z,18.50
2023-04-09T13:29:09.426Z,17.05
2023-04-09T13:30:14.924Z,17.80
2023-04-09T13:31:18.401Z,17.85
2023-04-09T13:32:22.411Z,16.85
2023-04-09T13:33:26.677Z,17.65
2023-04-09T13:34:29.096Z,17.42
2023-04-09T13:35:31.672Z,17.15
2023-04-09T13:36:34.687Z,17.33
2023-04-09T13:37:37.174Z,17.48
2023-04-09T13:38:39.643Z,16.83
2023-04-09T13:39:44.450Z,16.70
2023-04-09T13:40:46.793Z,16.00
2023-04-09T13:41:50.217Z,16.20
2023-04-09T13:42:56.936Z,16.00
2023-04-09T13:44:00.602Z,16.95
2023-04-09T13:45:04.303Z,16.02
2023-04-09T13:46:07.187Z,16.40
2023-04-09T13:47:11.471Z,16.02
2023-04-09T13:48:15.598Z,15.23
2023-04-09T13:49:20.617Z,15.55
2023-04-09T13:50:22.960Z,16.40
2023-04-09T13:51:30.296Z,15.93
2023-04-09T13:52:33.281Z,15.90
2023-04-09T13:53:36.713Z,14.95
2023-04-09T13:54:40.451Z,15.50
2023-04-09T13:55:44.948Z,15.02
2023-04-09T13:56:47.558Z,15.38
2023-04-09T13:57:52.074Z,14.23
2023-04-09T13:58:54.888Z,15.07
2023-04-09T13:59:57.202Z,16.23
2023-04-09T14:01:01.161Z,14.30
2023-04-09T14:02:05.193Z,13.27
2023-04-09T14:03:07.892Z,13.98
2023-04-09T14:04:12.910Z,14.48